Time;durP1;ratioP1;P1;durP2;ratioP2;P2;SDS_P1;SDS_P2;PMS_P1;PMS_P2;Temp;Humidity;BMP_temperature;BMP_pressure;BME280_temperature;BME280_humidity;BME280_pressure;Samples;Min_cycle;Max_cycle;Signal;HPM_P1;HPM_P2
2023/10/20 00:01:36;;;;;;;;;;;;;;;;;;2211092;59;2692;-20
2023/10/20 00:04:07;;;;;;;;;;;;;;;;;;2210337;59;2969;-20
2023/10/20 00:06:39;;;;;;;;;;;;;;;;;;2210874;59;2017;-20
2023/10/20 00:09:14;;;;;;;;;;;;;;;;;;2206369;59;3770;-20
2023/10/20 00:11:45;;;;;;;;;;;;;;;;;;2211294;59;1702;-18
2023/10/20 00:14:15;;;;;;;;;;;;;;;;;;2207628;59;2802;-18
2023/10/20 00:16:45;;;;;;;;;;;;;;;;;;2211839;59;1817;-18
2023/10/20 00:19:17;;;;;;;;;;;;;;;;;;2211383;59;2070;-18
2023/10/20 00:21:48;;;;;;;;;;;;;;;;;;2207217;59;2286;-20
2023/10/20 00:24:18;;;;;;;;;;;;;;;;;;2208158;59;2218;-20
2023/10/20 00:26:49;;;;;;;;;;;;;;;;;;2208583;59;2074;-20
2023/10/20 00:29:19;;;;;;;;;;;;;;;;;;2206735;59;2321;-20
2023/10/20 00:31:50;;;;;;;;;;;;;;;;;;2211268;59;2559;-20
2023/10/20 00:34:20;;;;;;;;;;;;;;;;;;2209920;59;1762;-18
2023/10/20 00:36:50;;;;;;;;;;;;;;;;;;2211618;59;2310;-18
2023/10/20 00:39:21;;;;;;;;;;;;;;;;;;2210540;59;1857;-18
2023/10/20 00:41:51;;;;;;;;;;;;;;;;;;2208147;59;2241;-18
2023/10/20 00:44:22;;;;;;;;;;;;;;;;;;2210636;59;2573;-18
2023/10/20 00:46:53;;;;;;;;;;;;;;;;;;2212092;59;2212;-18
2023/10/20 00:49:23;;;;;;;;;;;;;;;;;;2210556;58;2610;-18
2023/10/20 00:51:54;;;;;;;;;;;;;;;;;;2207377;59;2086;-20
2023/10/20 00:54:25;;;;;;;;;;;;;;;;;;2211157;59;2339;-20
2023/10/20 00:56:55;;;;;;;;;;;;;;;;;;2212307;59;1870;-20
2023/10/20 00:59:27;;;;;;;;;;;;;;;;;;2206796;59;3247;-18
2023/10/20 01:01:57;;;;;;;;;;;;;;;;;;2212288;59;2239;-18
2023/10/20 01:04:28;;;;;;;;;;;;;;;;;;2211400;59;2362;-18
2023/10/20 01:06:58;;;;;;;;;;;;;;;;;;2210834;59;2221;-18
2023/10/20 01:09:28;;;;;;;;;;;;;;;;;;2209487;59;2947;-18
2023/10/20 01:11:59;;;;;;;;;;;;;;;;;;2210902;59;2814;-20
2023/10/20 01:14:29;;;;;;;;;;;;;;;;;;2210084;59;1855;-20
2023/10/20 01:17:00;;;;;;;;;;;;;;;;;;2210886;59;2501;-18
2023/10/20 01:19:32;;;;;;;;;;;;;;;;;;2210860;59;1969;-20
2023/10/20 01:22:03;;;;;;;;;;;;;;;;;;2210562;59;2670;-20
2023/10/20 01:24:34;;;;;;;;;;;;;;;;;;2211504;66;2449;-20
2023/10/20 01:27:04;;;;;;;;;;;;;;;;;;2210030;59;3087;-20
2023/10/20 01:29:34;;;;;;;;;;;;;;;;;;2213056;59;2814;-20
2023/10/20 01:32:05;;;;;;;;;;;;;;;;;;2210393;59;2996;-20
2023/10/20 01:34:36;;;;;;;;;;;;;;;;;;2205504;59;2498;-18
2023/10/20 01:37:10;;;;;;;;;;;;;;;;;;2204440;59;2484;-18
2023/10/20 01:39:41;;;;;;;;;;;;;;;;;;2212025;59;3570;-18
2023/10/20 01:42:12;;;;;;;;;;;;;;;;;;2208218;59;2592;-18
2023/10/20 01:44:42;;;;;;;;;;;;;;;;;;2212326;59;1823;-18
2023/10/20 01:47:12;;;;;;;;;;;;;;;;;;2207015;59;2300;-18
2023/10/20 01:49:42;;;;;;;;;;;;;;;;;;2211799;59;1957;-18
2023/10/20 01:52:13;;;;;;;;;;;;;;;;;;2214111;59;2780;-19
2023/10/20 01:54:43;;;;;;;;;;;;;;;;;;2214205;59;2223;-18
2023/10/20 01:57:13;;;;;;;;;;;;;;;;;;2212103;59;2769;-23
2023/10/20 01:59:44;;;;;;;;;;;;;;;;;;2212826;59;2526;-20
2023/10/20 02:02:15;;;;;;;;;;;;;;;;;;2212409;59;2480;-20
2023/10/20 02:04:45;;;;;;;;;;;;;;;;;;2212090;59;2201;-20
2023/10/20 02:07:16;;;;;;;;;;;;;;;;;;2212098;59;2712;-20
2023/10/20 02:09:46;;;;;;;;;;;;;;;;;;2211316;59;3183;-20
2023/10/20 02:12:16;;;;;;;;;;;;;;;;;;2211460;59;3391;-20
2023/10/20 02:14:46;;;;;;;;;;;;;;;;;;2211745;59;1740;-22
2023/10/20 02:17:17;;;;;;;;;;;;;;;;;;2212067;66;3172;-20
2023/10/20 02:19:47;;;;;;;;;;;;;;;;;;2212506;59;1760;-20
2023/10/20 02:22:17;;;;;;;;;;;;;;;;;;2205760;59;2286;-20
2023/10/20 02:24:48;;;;;;;;;;;;;;;;;;2211996;59;2771;-20
2023/10/20 02:27:18;;;;;;;;;;;;;;;;;;2206666;59;2870;-20
2023/10/20 02:29:49;;;;;;;;;;;;;;;;;;2211426;59;2318;-20
2023/10/20 02:32:19;;;;;;;;;;;;;;;;;;2209875;58;2654;-20
2023/10/20 02:34:49;;;;;;;;;;;;;;;;;;2210600;59;2440;-22
2023/10/20 02:37:19;;;;;;;;;;;;;;;;;;2209907;59;2615;-18
2023/10/20 02:39:50;;;;;;;;;;;;;;;;;;2208168;59;2231;-20
2023/10/20 02:42:21;;;;;;;;;;;;;;;;;;2205940;59;3761;-20
2023/10/20 02:44:51;;;;;;;;;;;;;;;;;;2210212;59;3462;-20
2023/10/20 02:47:21;;;;;;;;;;;;;;;;;;2208714;59;3302;-20
2023/10/20 02:49:55;;;;;;;;;;;;;;;;;;2206530;59;1968;-20
2023/10/20 02:52:28;;;;;;;;;;;;;;;;;;2210186;58;3004;-18
2023/10/20 02:54:59;;;;;;;;;;;;;;;;;;2211058;59;2908;-20
2023/10/20 02:57:29;;;;;;;;;;;;;;;;;;2212008;59;2915;-20
2023/10/20 02:59:59;;;;;;;;;;;;;;;;;;2212841;59;2401;-20
2023/10/20 03:02:30;;;;;;;;;;;;;;;;;;2210838;59;3044;-18
2023/10/20 03:05:01;;;;;;;;;;;;;;;;;;2213734;59;3846;-20
2023/10/20 03:07:31;;;;;;;;;;;;;;;;;;2210144;59;2989;-23
2023/10/20 03:10:02;;;;;;;;;;;;;;;;;;2208180;59;3575;-20
2023/10/20 03:12:32;;;;;;;;;;;;;;;;;;2210696;59;3039;-18
2023/10/20 03:15:04;;;;;;;;;;;;;;;;;;2212503;59;2393;-20
2023/10/20 03:17:34;;;;;;;;;;;;;;;;;;2210559;62;1778;-18
2023/10/20 03:20:14;;;;;;;;;;;;;;;;;;2209310;59;2084;-18
2023/10/20 03:22:45;;;;;;;;;;;;;;;;;;2208869;59;3683;-18
2023/10/20 03:25:17;;;;;;;;;;;;;;;;;;2212352;59;2980;-21
2023/10/20 03:27:48;;;;;;;;;;;;;;;;;;2209391;59;2944;-21
2023/10/20 03:30:18;;;;;;;;;;;;;;;;;;2211315;59;2454;-20
2023/10/20 03:32:50;;;;;;;;;;;;;;;;;;2211605;59;2612;-18
2023/10/20 03:35:21;;;;;;;;;;;;;;;;;;2211347;59;2874;-18
2023/10/20 03:37:54;;;;;;;;;;;;;;;;;;2212041;59;2382;-21
2023/10/20 03:40:30;;;;;;;;;;;;;;;;;;2211850;59;3344;-18
2023/10/20 03:43:01;;;;;;;;;;;;;;;;;;2209291;59;3077;-18
2023/10/20 03:45:40;;;;;;;;;;;;;;;;;;2211352;59;2888;-20
2023/10/20 03:48:14;;;;;;;;;;;;;;;;;;2212876;59;2243;-21
2023/10/20 03:50:46;;;;;;;;;;;;;;;;;;2208595;59;2445;-20
2023/10/20 03:53:26;;;;;;;;;;;;;;;;;;2208385;59;3714;-20
2023/10/20 03:55:58;;;;;;;;;;;;;;;;;;2211061;59;3004;-20
2023/10/20 03:58:29;;;;;;;;;;;;;;;;;;2211740;59;2364;-21
2023/10/20 04:01:03;;;;;;;;;;;;;;;;;;2212661;59;2857;-18
2023/10/20 04:03:33;;;;;;;;;;;;;;;;;;2211774;58;2988;-21
2023/10/20 04:06:11;;;;;;;;;;;;;;;;;;2210892;59;2598;-18
2023/10/20 04:08:42;;;;;;;;;;;;;;;;;;2213118;59;2682;-18
2023/10/20 04:11:12;;;;;;;;;;;;;;;;;;2211199;59;3699;-18
2023/10/20 04:13:43;;;;;;;;;;;;;;;;;;2211435;59;3029;-20
2023/10/20 04:16:14;;;;;;;;;;;;;;;;;;2213586;59;3955;-20
2023/10/20 04:18:44;;;;;;;;;;;;;;;;;;2212226;59;2755;-20
2023/10/20 04:21:14;;;;;;;;;;;;;;;;;;2209786;59;3639;-18
2023/10/20 04:23:44;;;;;;;;;;;;;;;;;;2214325;59;3177;-18
2023/10/20 04:26:21;;;;;;;;;;;;;;;;;;2211146;59;4013;-20
2023/10/20 04:29:08;;;;;;;;;;;;;;;;;;2208759;67;2658;-18
2023/10/20 04:51:24;;;;;;;;;;;;;;;;;;2210853;59;3185;-18
2023/10/20 04:53:55;;;;;;;;;;;;;;;;;;2211631;59;3224;-20
2023/10/20 04:56:41;;;;;;;;;;;;;;;;;;2211125;59;3625;-18
2023/10/20 04:59:21;;;;;;;;;;;;;;;;;;2209180;59;2421;-21
2023/10/20 05:01:58;;;;;;;;;;;;;;;;;;2208367;59;2612;-20
2023/10/20 05:04:36;;;;;;;;;;;;;;;;;;2211816;59;2668;-18
2023/10/20 05:07:10;;;;;;;;;;;;;;;;;;2211255;59;3018;-20
2023/10/20 05:09:44;;;;;;;;;;;;;;;;;;2205556;59;2973;-18
2023/10/20 05:12:15;;;;;;;;;;;;;;;;;;2210537;59;2532;-20
2023/10/20 05:14:49;;;;;;;;;;;;;;;;;;2209558;59;3169;-18
2023/10/20 05:17:20;;;;;;;;;;;;;;;;;;2210348;59;3108;-18
2023/10/20 05:19:53;;;;;;;;;;;;;;;;;;2215028;58;2911;-18
2023/10/20 05:22:24;;;;;;;;;;;;;;;;;;2202064;59;2657;-18
2023/10/20 05:24:54;;;;;;;;;;;;;;;;;;2213262;59;2495;-20
2023/10/20 05:27:25;;;;;;;;;;;;;;;;;;2211580;59;3377;-20
2023/10/20 05:29:55;;;;;;;;;;;;;;;;;;2209259;59;3702;-18
2023/10/20 05:32:27;;;;;;;;;;;;;;;;;;2211992;59;2743;-18
2023/10/20 05:34:59;;;;;;;;;;;;;;;;;;2212365;59;3717;-20
2023/10/20 05:37:30;;;;;;;;;;;;;;;;;;2211583;59;6261;-20
2023/10/20 05:40:00;;;;;;;;;;;;;;;;;;2209020;59;4103;-20
2023/10/20 05:42:31;;;;;;;;;;;;;;;;;;2212064;59;3426;-18
2023/10/20 05:45:10;;;;;;;;;;;;;;;;;;2212718;59;3189;-20
2023/10/20 05:47:40;;;;;;;;;;;;;;;;;;2208698;59;2723;-19
2023/10/20 05:50:11;;;;;;;;;;;;;;;;;;2209817;59;2840;-20
2023/10/20 05:52:41;;;;;;;;;;;;;;;;;;2210357;59;2867;-20
2023/10/20 05:55:12;;;;;;;;;;;;;;;;;;2212824;59;3163;-20
2023/10/20 05:57:42;;;;;;;;;;;;;;;;;;2211667;59;2300;-20
2023/10/20 06:00:15;;;;;;;;;;;;;;;;;;2209464;59;4099;-20
2023/10/20 06:02:46;;;;;;;;;;;;;;;;;;2213642;59;2604;-18
2023/10/20 06:05:16;;;;;;;;;;;;;;;;;;2212681;59;2756;-18
2023/10/20 06:07:52;;;;;;;;;;;;;;;;;;2213120;59;4150;-20
2023/10/20 06:10:23;;;;;;;;;;;;;;;;;;2209733;59;5353;-18
2023/10/20 06:12:53;;;;;;;;;;;;;;;;;;2214314;59;4285;-20
2023/10/20 06:15:24;;;;;;;;;;;;;;;;;;2211600;59;3649;-18
2023/10/20 06:17:57;;;;;;;;;;;;;;;;;;2212885;59;2759;-20
2023/10/20 06:20:28;;;;;;;;;;;;;;;;;;2207770;59;3409;-18
2023/10/20 06:22:59;;;;;;;;;;;;;;;;;;2212555;59;3667;-18
2023/10/20 06:25:31;;;;;;;;;;;;;;;;;;2211642;59;2995;-20
2023/10/20 06:28:01;;;;;;;;;;;;;;;;;;2211809;59;2855;-20
2023/10/20 06:30:33;;;;;;;;;;;;;;;;;;2208022;59;2525;-19
2023/10/20 06:35:52;;;;;;;;;;;;;;;;;;2211131;59;3197;-18
2023/10/20 06:38:44;;;;;;;;;;;;;;;;;;2208588;59;3343;-19
2023/10/20 06:41:15;;;;;;;;;;;;;;;;;;2210417;59;2875;-18
2023/10/20 06:43:45;;;;;;;;;;;;;;;;;;2209876;59;2511;-18
2023/10/20 06:46:16;;;;;;;;;;;;;;;;;;2210141;59;3802;-18
2023/10/20 06:48:47;;;;;;;;;;;;;;;;;;2210180;59;3987;-18
2023/10/20 06:51:29;;;;;;;;;;;;;;;;;;2209718;59;2913;-21
2023/10/20 06:54:01;;;;;;;;;;;;;;;;;;2208061;59;2831;-20
2023/10/20 06:56:31;;;;;;;;;;;;;;;;;;2205386;59;2917;-20
2023/10/20 06:59:01;;;;;;;;;;;;;;;;;;2206305;59;2450;-20
2023/10/20 07:01:36;;;;;;;;;;;;;;;;;;2208947;59;3405;-19
2023/10/20 07:04:09;;;;;;;;;;;;;;;;;;2205134;59;2928;-18
2023/10/20 07:06:43;;;;;;;;;;;;;;;;;;2203180;59;3064;-20
2023/10/20 07:09:14;;;;;;;;;;;;;;;;;;2204205;59;2645;-18
2023/10/20 07:11:46;;;;;;;;;;;;;;;;;;2202812;59;2569;-20
2023/10/20 07:14:17;;;;;;;;;;;;;;;;;;2204699;59;3747;-20
2023/10/20 07:16:48;;;;;;;;;;;;;;;;;;2198839;59;3042;-21
2023/10/20 07:19:19;;;;;;;;;;;;;;;;;;2204624;59;3477;-18
2023/10/20 07:21:50;;;;;;;;;;;;;;;;;;2207533;59;3192;-20
2023/10/20 07:24:20;;;;;;;;;;;;;;;;;;2207256;59;2980;-21
2023/10/20 07:26:51;;;;;;;;;;;;;;;;;;2207259;59;2353;-20
2023/10/20 07:29:22;;;;;;;;;;;;;;;;;;2208550;59;2613;-18
2023/10/20 07:31:52;;;;;;;;;;;;;;;;;;2208095;59;3068;-18
2023/10/20 07:34:22;;;;;;;;;;;;;;;;;;2209100;58;3436;-20
2023/10/20 07:36:53;;;;;;;;;;;;;;;;;;2211759;59;2999;-18
2023/10/20 07:39:24;;;;;;;;;;;;;;;;;;2209682;59;3372;-20
2023/10/20 07:41:54;;;;;;;;;;;;;;;;;;2208180;59;3347;-20
2023/10/20 07:44:25;;;;;;;;;;;;;;;;;;2210264;59;4071;-20
2023/10/20 07:46:55;;;;;;;;;;;;;;;;;;2207201;59;3525;-18
2023/10/20 07:49:25;;;;;;;;;;;;;;;;;;2209524;59;3091;-18
2023/10/20 07:51:56;;;;;;;;;;;;;;;;;;2211225;59;2457;-21
2023/10/20 07:54:26;;;;;;;;;;;;;;;;;;2209159;59;2398;-21
2023/10/20 07:56:58;;;;;;;;;;;;;;;;;;2207398;59;2332;-20
2023/10/20 07:59:28;;;;;;;;;;;;;;;;;;2208738;59;2626;-19
2023/10/20 08:01:59;;;;;;;;;;;;;;;;;;2208059;59;3219;-21
2023/10/20 08:04:29;;;;;;;;;;;;;;;;;;2209590;59;4440;-19
2023/10/20 08:06:59;;;;;;;;;;;;;;;;;;2209941;67;2636;-21
2023/10/20 08:09:30;;;;;;;;;;;;;;;;;;2209380;59;3766;-21
2023/10/20 08:12:01;;;;;;;;;;;;;;;;;;2210618;66;4288;-19
2023/10/20 08:14:33;;;;;;;;;;;;;;;;;;2209155;60;2907;-19
2023/10/20 08:17:05;;;;;;;;;;;;;;;;;;2205539;59;3294;-21
2023/10/20 08:19:35;;;;;;;;;;;;;;;;;;2208909;59;3494;-19
2023/10/20 08:22:05;;;;;;;;;;;;;;;;;;2211484;59;4581;-18
2023/10/20 08:24:36;;;;;;;;;;;;;;;;;;2206854;59;3814;-19
2023/10/20 08:27:07;;;;;;;;;;;;;;;;;;2210512;59;2742;-19
2023/10/20 08:29:37;;;;;;;;;;;;;;;;;;2206228;59;4191;-18
2023/10/20 08:32:08;;;;;;;;;;;;;;;;;;2211449;59;2655;-20
2023/10/20 08:34:38;;;;;;;;;;;;;;;;;;2206454;59;4275;-18
2023/10/20 08:37:08;;;;;;;;;;;;;;;;;;2210192;59;2060;-18
2023/10/20 08:39:39;;;;;;;;;;;;;;;;;;2206160;59;3436;-19
2023/10/20 08:42:19;;;;;;;;;;;;;;;;;;2209938;59;2789;-18
2023/10/20 08:44:50;;;;;;;;;;;;;;;;;;2209828;66;3424;-18
2023/10/20 08:47:21;;;;;;;;;;;;;;;;;;2206598;59;4038;-18
2023/10/20 08:49:51;;;;;;;;;;;;;;;;;;2209837;66;4283;-19
2023/10/20 08:52:22;;;;;;;;;;;;;;;;;;2212239;59;2546;-19
2023/10/20 08:54:54;;;;;;;;;;;;;;;;;;2210092;59;2914;-18
2023/10/20 08:57:26;;;;;;;;;;;;;;;;;;2207518;59;3860;-18
2023/10/20 08:59:56;;;;;;;;;;;;;;;;;;2211076;59;2606;-20
2023/10/20 09:02:37;;;;;;;;;;;;;;;;;;2209722;59;2588;-21
2023/10/20 09:05:08;;;;;;;;;;;;;;;;;;2209415;59;2856;-19
2023/10/20 09:07:39;;;;;;;;;;;;;;;;;;2209924;59;3065;-19
2023/10/20 09:10:09;;;;;;;;;;;;;;;;;;2207939;59;3883;-18
2023/10/20 09:12:40;;;;;;;;;;;;;;;;;;2210277;59;2768;-19
2023/10/20 09:15:13;;;;;;;;;;;;;;;;;;2211280;59;2277;-18
2023/10/20 09:17:46;;;;;;;;;;;;;;;;;;2208962;59;3033;-21
2023/10/20 09:20:19;;;;;;;;;;;;;;;;;;2211042;59;3204;-21
2023/10/20 09:22:49;;;;;;;;;;;;;;;;;;2208843;59;1713;-21
2023/10/20 09:28:50;;;;;;;;;;;;;;;;;;2209446;59;2517;-19
2023/10/20 09:31:24;;;;;;;;;;;;;;;;;;2208205;59;1742;-19
2023/10/20 09:33:55;;;;;;;;;;;;;;;;;;2205705;67;1524;-21
2023/10/20 09:36:28;;;;;;;;;;;;;;;;;;2203465;59;2355;-21
2023/10/20 09:38:59;;;;;;;;;;;;;;;;;;2205308;59;2578;-21
2023/10/20 09:41:30;;;;;;;;;;;;;;;;;;2209507;59;1756;-18
2023/10/20 09:44:05;;;;;;;;;;;;;;;;;;2205777;67;1536;-21
2023/10/20 09:46:35;;;;;;;;;;;;;;;;;;2205267;59;1758;-21
2023/10/20 09:49:24;;;;;;;;;;;;;;;;;;2207119;59;3870;-21
2023/10/20 09:51:56;;;;;;;;;;;;;;;;;;2206126;59;1549;-18
2023/10/20 09:54:30;;;;;;;;;;;;;;;;;;2209636;59;2567;-21
2023/10/20 09:57:06;;;;;;;;;;;;;;;;;;2210754;59;1726;-19
2023/10/20 09:59:38;;;;;;;;;;;;;;;;;;2208221;59;1501;-21
2023/10/20 10:02:08;;;;;;;;;;;;;;;;;;2211222;59;2691;-18
2023/10/20 10:04:41;;;;;;;;;;;;;;;;;;2208934;59;1515;-19
2023/10/20 10:07:15;;;;;;;;;;;;;;;;;;2209156;59;1576;-19
2023/10/20 10:09:49;;;;;;;;;;;;;;;;;;2204888;59;2638;-21
2023/10/20 10:12:20;;;;;;;;;;;;;;;;;;2204011;59;2453;-19
2023/10/20 10:14:59;;;;;;;;;;;;;;;;;;2205579;59;1596;-18
2023/10/20 10:17:30;;;;;;;;;;;;;;;;;;2204036;66;2491;-21
2023/10/20 10:20:01;;;;;;;;;;;;;;;;;;2208489;59;3577;-18
2023/10/20 10:22:31;;;;;;;;;;;;;;;;;;2205435;59;3114;-18
2023/10/20 10:25:04;;;;;;;;;;;;;;;;;;2207630;66;2926;-21
2023/10/20 10:27:36;;;;;;;;;;;;;;;;;;2202312;59;3048;-18
2023/10/20 10:30:07;;;;;;;;;;;;;;;;;;2207545;66;2633;-21
2023/10/20 10:32:48;;;;;;;;;;;;;;;;;;2207460;59;3231;-21
2023/10/20 10:35:19;;;;;;;;;;;;;;;;;;2208721;59;2417;-18
2023/10/20 10:37:51;;;;;;;;;;;;;;;;;;2204652;59;3941;-21
2023/10/20 10:40:25;;;;;;;;;;;;;;;;;;2203668;59;3658;-19
2023/10/20 10:42:56;;;;;;;;;;;;;;;;;;2203934;59;4736;-19
2023/10/20 10:45:36;;;;;;;;;;;;;;;;;;2206813;59;3474;-20
2023/10/20 10:48:14;;;;;;;;;;;;;;;;;;2205344;59;3119;-21
2023/10/20 10:50:46;;;;;;;;;;;;;;;;;;2204706;59;3459;-18
2023/10/20 10:53:17;;;;;;;;;;;;;;;;;;2208173;58;3822;-18
2023/10/20 10:55:47;;;;;;;;;;;;;;;;;;2206813;53;3387;-20
2023/10/20 10:58:18;;;;;;;;;;;;;;;;;;2201181;59;2455;-21
2023/10/20 11:00:49;;;;;;;;;;;;;;;;;;2202096;59;3626;-21
2023/10/20 11:03:19;;;;;;;;;;;;;;;;;;2202272;59;2263;-21
2023/10/20 11:05:53;;;;;;;;;;;;;;;;;;2198615;59;3776;-18
2023/10/20 11:08:30;;;;;;;;;;;;;;;;;;2198882;59;2185;-19
2023/10/20 11:11:05;;;;;;;;;;;;;;;;;;2201763;67;4131;-19
2023/10/20 11:14:12;;;;;;;;;;;;;;;;;;2199411;59;3392;-19
2023/10/20 11:17:03;;;;;;;;;;;;;;;;;;2200122;59;3354;-18
2023/10/20 11:19:36;;;;;;;;;;;;;;;;;;2199004;59;3244;-18
2023/10/20 11:22:25;;;;;;;;;;;;;;;;;;2201932;59;2863;-18
2023/10/20 11:24:59;;;;;;;;;;;;;;;;;;2200830;59;2651;-18
2023/10/20 11:27:53;;;;;;;;;;;;;;;;;;2200125;59;3057;-18
2023/10/20 11:30:27;;;;;;;;;;;;;;;;;;2201985;59;2882;-18
2023/10/20 11:33:01;;;;;;;;;;;;;;;;;;2200265;59;4123;-19
2023/10/20 11:35:32;;;;;;;;;;;;;;;;;;2193875;67;2322;-21
2023/10/20 11:38:03;;;;;;;;;;;;;;;;;;2197979;59;2867;-19
2023/10/20 11:40:52;;;;;;;;;;;;;;;;;;2201579;59;2935;-21
2023/10/20 11:43:42;;;;;;;;;;;;;;;;;;2198969;59;3805;-18
2023/10/20 11:46:33;;;;;;;;;;;;;;;;;;2200300;59;4086;-18
2023/10/20 11:49:27;;;;;;;;;;;;;;;;;;2202261;59;2927;-18
2023/10/20 11:52:17;;;;;;;;;;;;;;;;;;2199470;59;2792;-18
2023/10/20 11:55:09;;;;;;;;;;;;;;;;;;2196252;59;4014;-21
2023/10/20 11:58:00;;;;;;;;;;;;;;;;;;2202833;59;3550;-21
2023/10/20 12:00:54;;;;;;;;;;;;;;;;;;2200998;59;3833;-18
2023/10/20 12:03:45;;;;;;;;;;;;;;;;;;2200227;59;3935;-20
2023/10/20 12:06:38;;;;;;;;;;;;;;;;;;2200165;59;3644;-18
2023/10/20 12:09:28;;;;;;;;;;;;;;;;;;2201330;59;3857;-18
2023/10/20 12:12:20;;;;;;;;;;;;;;;;;;2202250;59;2867;-19
2023/10/20 12:15:11;;;;;;;;;;;;;;;;;;2200162;59;2172;-19
2023/10/20 12:18:02;;;;;;;;;;;;;;;;;;2201179;59;3265;-21
2023/10/20 12:20:53;;;;;;;;;;;;;;;;;;2197290;59;3196;-21
2023/10/20 12:23:43;;;;;;;;;;;;;;;;;;2199745;59;3730;-21
2023/10/20 12:26:34;;;;;;;;;;;;;;;;;;2201101;59;2869;-21
2023/10/20 12:29:25;;;;;;;;;;;;;;;;;;2200909;59;3577;-19
2023/10/20 12:32:16;;;;;;;;;;;;;;;;;;2198902;59;1988;-19
2023/10/20 12:35:06;;;;;;;;;;;;;;;;;;2200680;59;2131;-19
2023/10/20 12:37:57;;;;;;;;;;;;;;;;;;2201346;59;3048;-21
2023/10/20 12:40:51;;;;;;;;;;;;;;;;;;2197624;59;2915;-21
2023/10/20 12:43:42;;;;;;;;;;;;;;;;;;2198692;59;3163;-19
2023/10/20 12:46:34;;;;;;;;;;;;;;;;;;2201024;59;2580;-19
2023/10/20 12:49:25;;;;;;;;;;;;;;;;;;2201339;59;2517;-21
2023/10/20 12:52:16;;;;;;;;;;;;;;;;;;2202215;59;2525;-19
2023/10/20 12:55:08;;;;;;;;;;;;;;;;;;2200610;59;2837;-21
2023/10/20 12:58:02;;;;;;;;;;;;;;;;;;2200462;59;2756;-19
2023/10/20 13:00:52;;;;;;;;;;;;;;;;;;2199500;59;1840;-19
2023/10/20 13:03:43;;;;;;;;;;;;;;;;;;2198762;59;3852;-21
2023/10/20 13:06:34;;;;;;;;;;;;;;;;;;2201424;59;3389;-21
2023/10/20 13:09:25;;;;;;;;;;;;;;;;;;2199895;59;3627;-21
2023/10/20 13:12:16;;;;;;;;;;;;;;;;;;2201277;59;3496;-21
2023/10/20 13:15:09;;;;;;;;;;;;;;;;;;2200694;59;3872;-22
2023/10/20 13:18:00;;;;;;;;;;;;;;;;;;2197190;59;3488;-22
2023/10/20 13:20:51;;;;;;;;;;;;;;;;;;2196514;59;3743;-22
2023/10/20 13:23:46;;;;;;;;;;;;;;;;;;2195958;59;3275;-22
2023/10/20 13:26:37;;;;;;;;;;;;;;;;;;2200165;59;3838;-22
2023/10/20 13:29:28;;;;;;;;;;;;;;;;;;2198386;59;3514;-22
2023/10/20 13:32:19;;;;;;;;;;;;;;;;;;2198943;59;3311;-22
2023/10/20 13:35:10;;;;;;;;;;;;;;;;;;2200398;59;2688;-22
2023/10/20 13:37:41;;;;;;;;;;;;;;;;;;2196729;59;3873;-22
2023/10/20 13:40:20;;;;;;;;;;;;;;;;;;2198506;59;3672;-22
2023/10/20 13:42:51;;;;;;;;;;;;;;;;;;2199555;59;3882;-22
2023/10/20 13:45:21;;;;;;;;;;;;;;;;;;2202717;59;4132;-20
2023/10/20 13:47:52;;;;;;;;;;;;;;;;;;2200392;59;3702;-20
2023/10/20 13:50:22;;;;;;;;;;;;;;;;;;2201412;59;3505;-20
2023/10/20 13:52:52;;;;;;;;;;;;;;;;;;2199855;59;3805;-22
2023/10/20 13:55:23;;;;;;;;;;;;;;;;;;2198991;67;3510;-20
2023/10/20 13:57:53;;;;;;;;;;;;;;;;;;2199454;59;4007;-20
2023/10/20 14:00:23;;;;;;;;;;;;;;;;;;2201289;59;3468;-22
2023/10/20 14:02:54;;;;;;;;;;;;;;;;;;2198409;59;4230;-22
2023/10/20 14:05:24;;;;;;;;;;;;;;;;;;2200792;67;3488;-21
2023/10/20 14:07:55;;;;;;;;;;;;;;;;;;2198564;67;3796;-23
2023/10/20 14:10:26;;;;;;;;;;;;;;;;;;2198710;59;4565;-20
2023/10/20 14:12:57;;;;;;;;;;;;;;;;;;2197280;67;3328;-20
2023/10/20 14:15:27;;;;;;;;;;;;;;;;;;2202108;67;2962;-20
2023/10/20 14:17:59;;;;;;;;;;;;;;;;;;2199302;67;3785;-20
2023/10/20 14:20:31;;;;;;;;;;;;;;;;;;2202738;67;3456;-23
2023/10/20 14:23:04;;;;;;;;;;;;;;;;;;2200163;59;3591;-20
2023/10/20 14:25:35;;;;;;;;;;;;;;;;;;2202172;59;3574;-23
2023/10/20 14:28:05;;;;;;;;;;;;;;;;;;2199774;59;2877;-20
2023/10/20 14:30:35;;;;;;;;;;;;;;;;;;2201969;59;3840;-20
2023/10/20 14:33:05;;;;;;;;;;;;;;;;;;2200603;59;3871;-20
2023/10/20 14:35:36;;;;;;;;;;;;;;;;;;2201766;59;3578;-24
2023/10/20 14:38:09;;;;;;;;;;;;;;;;;;2198284;59;3805;-23
2023/10/20 14:40:40;;;;;;;;;;;;;;;;;;2195770;67;3766;-20
2023/10/20 14:43:10;;;;;;;;;;;;;;;;;;2198369;59;3650;-24
2023/10/20 14:45:41;;;;;;;;;;;;;;;;;;2200837;59;4090;-24
2023/10/20 14:48:12;;;;;;;;;;;;;;;;;;2198142;59;2823;-20
2023/10/20 14:50:44;;;;;;;;;;;;;;;;;;2200637;59;2344;-20
2023/10/20 14:53:15;;;;;;;;;;;;;;;;;;2201864;59;2528;-24
2023/10/20 14:55:46;;;;;;;;;;;;;;;;;;2198159;59;2814;-24
2023/10/20 14:58:16;;;;;;;;;;;;;;;;;;2200842;59;3266;-21
2023/10/20 15:00:47;;;;;;;;;;;;;;;;;;2200935;59;3017;-20
2023/10/20 15:03:21;;;;;;;;;;;;;;;;;;2200016;59;3333;-21
2023/10/20 15:05:51;;;;;;;;;;;;;;;;;;2202907;59;3624;-24
2023/10/20 15:08:23;;;;;;;;;;;;;;;;;;2202262;59;3728;-21
2023/10/20 15:10:53;;;;;;;;;;;;;;;;;;2201204;59;4112;-24
2023/10/20 15:13:23;;;;;;;;;;;;;;;;;;2202322;67;3552;-25
2023/10/20 15:15:59;;;;;;;;;;;;;;;;;;2200683;59;3934;-21
2023/10/20 15:18:29;;;;;;;;;;;;;;;;;;2198435;59;3469;-24
2023/10/20 15:21:03;;;;;;;;;;;;;;;;;;2198106;67;3742;-24
2023/10/20 15:23:33;;;;;;;;;;;;;;;;;;2199182;59;6340;-25
2023/10/20 15:26:05;;;;;;;;;;;;;;;;;;2199198;59;3358;-25
2023/10/20 15:28:35;;;;;;;;;;;;;;;;;;2201754;59;3590;-25
2023/10/20 15:31:07;;;;;;;;;;;;;;;;;;2198236;59;3816;-25
2023/10/20 15:33:38;;;;;;;;;;;;;;;;;;2203218;59;3738;-22
2023/10/20 15:36:09;;;;;;;;;;;;;;;;;;2200458;59;3682;-24
2023/10/20 15:38:40;;;;;;;;;;;;;;;;;;2198657;59;3933;-25
2023/10/20 15:41:18;;;;;;;;;;;;;;;;;;2197743;64;3810;-22
2023/10/20 15:43:52;;;;;;;;;;;;;;;;;;2194585;59;3817;-21
2023/10/20 15:46:23;;;;;;;;;;;;;;;;;;2196122;59;3789;-21
2023/10/20 15:48:54;;;;;;;;;;;;;;;;;;2197998;59;2668;-21
2023/10/20 15:51:28;;;;;;;;;;;;;;;;;;2197786;59;3293;-25
2023/10/20 15:53:59;;;;;;;;;;;;;;;;;;2195026;59;3421;-22
2023/10/20 15:56:30;;;;;;;;;;;;;;;;;;2200286;59;3653;-22
2023/10/20 15:59:01;;;;;;;;;;;;;;;;;;2196033;59;3758;-21
2023/10/20 16:01:33;;;;;;;;;;;;;;;;;;2199319;59;2637;-21
2023/10/20 16:04:04;;;;;;;;;;;;;;;;;;2201730;59;3581;-24
2023/10/20 16:06:36;;;;;;;;;;;;;;;;;;2202138;59;2610;-22
2023/10/20 16:09:12;;;;;;;;;;;;;;;;;;2197140;59;3943;-21
2023/10/20 16:11:43;;;;;;;;;;;;;;;;;;2202051;59;3315;-22
2023/10/20 16:14:13;;;;;;;;;;;;;;;;;;2201125;67;3942;-22
2023/10/20 16:16:44;;;;;;;;;;;;;;;;;;2197687;67;3642;-22
2023/10/20 16:19:16;;;;;;;;;;;;;;;;;;2198357;67;3503;-22
2023/10/20 16:21:47;;;;;;;;;;;;;;;;;;2203669;59;3081;-21
2023/10/20 16:24:18;;;;;;;;;;;;;;;;;;2198962;67;3663;-24
2023/10/20 16:26:49;;;;;;;;;;;;;;;;;;2195445;59;2694;-26
2023/10/20 16:29:21;;;;;;;;;;;;;;;;;;2200423;59;3650;-25
2023/10/20 16:31:52;;;;;;;;;;;;;;;;;;2201446;59;3897;-25
2023/10/20 16:34:27;;;;;;;;;;;;;;;;;;2204086;60;3629;-24
2023/10/20 16:36:58;;;;;;;;;;;;;;;;;;2201155;60;3451;-21
2023/10/20 16:39:29;;;;;;;;;;;;;;;;;;2203074;59;3743;-21
2023/10/20 16:42:02;;;;;;;;;;;;;;;;;;2196865;59;3851;-23
2023/10/20 16:44:34;;;;;;;;;;;;;;;;;;2196581;60;1856;-24
2023/10/20 16:47:18;;;;;;;;;;;;;;;;;;2196339;59;3225;-25
2023/10/20 16:50:01;;;;;;;;;;;;;;;;;;2195364;67;3681;-23
2023/10/20 16:52:35;;;;;;;;;;;;;;;;;;2202456;59;3277;-24
2023/10/20 16:55:10;;;;;;;;;;;;;;;;;;2200972;67;3936;-21
2023/10/20 16:57:43;;;;;;;;;;;;;;;;;;2197281;59;2698;-24
2023/10/20 17:00:17;;;;;;;;;;;;;;;;;;2195414;67;3723;-25
2023/10/20 17:02:52;;;;;;;;;;;;;;;;;;2197620;59;2742;-25
2023/10/20 17:05:23;;;;;;;;;;;;;;;;;;2200148;59;3597;-21
2023/10/20 17:07:54;;;;;;;;;;;;;;;;;;2196635;59;3950;-24
2023/10/20 17:13:03;;;;;;;;;;;;;;;;;;2207354;59;3337;-27
2023/10/20 17:15:33;;;;;;;;;;;;;;;;;;2203354;59;2245;-27
2023/10/20 17:18:08;;;;;;;;;;;;;;;;;;2206205;59;2204;-29
2023/10/20 17:20:39;;;;;;;;;;;;;;;;;;2203391;59;1852;-29
2023/10/20 17:23:09;;;;;;;;;;;;;;;;;;2201755;67;4484;-29
2023/10/20 17:25:46;;;;;;;;;;;;;;;;;;2202653;59;2693;-29
2023/10/20 17:28:16;;;;;;;;;;;;;;;;;;2202364;67;2858;-29
2023/10/20 17:31:12;;;;;;;;;;;;;;;;;;2204234;59;2636;-27
2023/10/20 17:33:43;;;;;;;;;;;;;;;;;;2204012;59;1959;-27
2023/10/20 17:36:14;;;;;;;;;;;;;;;;;;2204307;59;3748;-27
2023/10/20 17:38:44;;;;;;;;;;;;;;;;;;2204694;59;3388;-27
2023/10/20 17:41:15;;;;;;;;;;;;;;;;;;2203381;59;3840;-27
2023/10/20 17:44:05;;;;;;;;;;;;;;;;;;2203704;59;3405;-26
2023/10/20 17:46:35;;;;;;;;;;;;;;;;;;2205246;59;3651;-26
2023/10/20 17:49:06;;;;;;;;;;;;;;;;;;2204438;59;2668;-26
2023/10/20 17:51:36;;;;;;;;;;;;;;;;;;2205706;59;3697;-26
2023/10/20 17:54:06;;;;;;;;;;;;;;;;;;2201105;59;2878;-26
2023/10/20 17:56:37;;;;;;;;;;;;;;;;;;2205743;67;3765;-26
2023/10/20 17:59:07;;;;;;;;;;;;;;;;;;2204534;67;2850;-26
2023/10/20 18:01:56;;;;;;;;;;;;;;;;;;2202982;59;2680;-26
2023/10/20 18:04:47;;;;;;;;;;;;;;;;;;2205833;59;3071;-26
2023/10/20 18:07:40;;;;;;;;;;;;;;;;;;2205850;59;3308;-26
2023/10/20 18:10:30;;;;;;;;;;;;;;;;;;2205541;59;1983;-26
2023/10/20 18:13:21;;;;;;;;;;;;;;;;;;2204846;59;4190;-26
2023/10/20 18:16:14;;;;;;;;;;;;;;;;;;2203893;59;3650;-26
2023/10/20 18:19:07;;;;;;;;;;;;;;;;;;2204341;59;3736;-26
2023/10/20 18:22:01;;;;;;;;;;;;;;;;;;2204146;67;2335;-26